Time;durP1;ratioP1;P1;durP2;ratioP2;P2;SDS_P1;SDS_P2;PMS_P1;PMS_P2;Temp;Humidity;BMP_temperature;BMP_pressure;BME280_temperature;BME280_humidity;BME280_pressure;Samples;Min_cycle;Max_cycle;Signal;HPM_P1;HPM_P2
2022/09/02 00:00:59;;;;;;;;;;;;;;;21.71;51.21;153111.73;1653896;85;20166;-66
2022/09/02 00:03:32;;;;;;;;;;;;;;;21.70;51.62;153110.41;1670996;86;20197;-66
2022/09/02 00:05:59;;;;;;;;;;;;;;;21.77;51.65;153127.41;1694413;82;20106;-66
2022/09/02 00:08:26;;;;;;;;;;;;;;;21.83;51.73;153141.81;1692569;84;21251;-66
2022/09/02 00:10:53;;;;;;;;;;;;;;;21.86;51.72;153149.66;1646663;87;20419;-66
2022/09/02 00:13:20;;;;;;;;;;;;;;;21.92;51.85;153165.31;1642237;85;20232;-70
2022/09/02 00:15:47;;;;;;;;;;;;;;;21.94;51.29;153170.55;1640413;87;20682;-66
2022/09/02 00:18:15;;;;;;;;;;;;;;;21.93;51.88;153167.94;1682078;85;20207;-66
2022/09/02 00:20:42;;;;;;;;;;;;;;;21.96;50.87;153174.50;1681543;85;21156;-70
2022/09/02 00:23:09;;;;;;;;;;;;;;;21.87;50.22;153152.25;1681280;84;20183;-67
2022/09/02 00:25:36;;;;;;;;;;;;;;;21.75;49.66;153122.19;1681480;84;20238;-66
2022/09/02 00:28:03;;;;;;;;;;;;;;;21.67;49.50;153102.56;1682191;84;20463;-66
2022/09/02 00:30:31;;;;;;;;;;;;;;;21.68;49.89;153105.19;1681779;85;20235;-66
2022/09/02 00:32:58;;;;;;;;;;;;;;;21.65;49.90;153097.34;1682513;85;21845;-67
2022/09/02 00:35:25;;;;;;;;;;;;;;;21.70;50.25;153109.13;1682116;85;20435;-70
2022/09/02 00:37:52;;;;;;;;;;;;;;;21.69;49.80;153107.80;1682005;85;20200;-70
2022/09/02 00:40:19;;;;;;;;;;;;;;;21.62;49.83;153089.45;1681749;85;20175;-70
2022/09/02 00:42:46;;;;;;;;;;;;;;;21.55;50.27;153072.45;1681776;85;20621;-70
2022/09/02 00:45:13;;;;;;;;;;;;;;;21.50;50.84;153058.06;1682017;85;21106;-70
2022/09/02 00:47:40;;;;;;;;;;;;;;;21.44;50.95;153045.00;1681786;85;20223;-70
2022/09/02 00:50:09;;;;;;;;;;;;;;;21.40;51.85;153033.22;1682029;85;20208;-70
2022/09/02 00:52:46;;;;;;;;;;;;;;;21.39;51.56;153031.94;1682110;85;20210;-71
2022/09/02 00:55:15;;;;;;;;;;;;;;;21.50;52.22;153058.06;1672977;85;20186;-71
2022/09/02 00:57:49;;;;;;;;;;;;;;;21.53;50.86;153065.91;1681975;85;21345;-71
2022/09/02 01:00:22;;;;;;;;;;;;;;;21.46;50.98;153050.22;1702637;84;20221;-71
2022/09/02 01:02:54;;;;;;;;;;;;;;;21.41;50.72;153035.83;1709107;84;20150;-71
2022/09/02 01:05:22;;;;;;;;;;;;;;;21.33;51.50;153016.22;1709232;84;20186;-71
2022/09/02 01:07:50;;;;;;;;;;;;;;;21.27;52.22;153000.55;1709648;84;20129;-71
2022/09/02 01:10:20;;;;;;;;;;;;;;;21.19;51.75;152980.94;1709614;84;21235;-70
2022/09/02 01:12:47;;;;;;;;;;;;;;;21.16;51.39;152974.42;1692771;84;20184;-71
2022/09/02 01:15:15;;;;;;;;;;;;;;;21.17;53.01;152977.05;1678218;84;20184;-71
2022/09/02 01:17:44;;;;;;;;;;;;;;;21.18;53.11;152978.33;1670810;86;20616;-71
2022/09/02 01:20:14;;;;;;;;;;;;;;;21.18;54.27;152979.66;1677757;85;20469;-70
2022/09/02 01:22:41;;;;;;;;;;;;;;;21.16;51.95;152973.09;1670831;86;21151;-70
2022/09/02 01:25:11;;;;;;;;;;;;;;;21.15;52.50;152970.48;1678092;84;20215;-70
2022/09/02 01:27:37;;;;;;;;;;;;;;;21.11;53.29;152961.38;1671289;84;20207;-71
2022/09/02 01:30:05;;;;;;;;;;;;;;;21.05;52.12;152945.66;1677713;84;20208;-70
2022/09/02 01:32:32;;;;;;;;;;;;;;;21.11;52.39;152960.05;1671007;84;20885;-70
2022/09/02 01:34:59;;;;;;;;;;;;;;;21.13;53.50;152966.59;1677858;85;21279;-69
2022/09/02 01:37:27;;;;;;;;;;;;;;;21.10;52.38;152958.70;1671126;86;20437;-70
2022/09/02 01:39:53;;;;;;;;;;;;;;;21.02;53.61;152937.81;1677524;84;20213;-70
2022/09/02 01:42:22;;;;;;;;;;;;;;;20.98;53.27;152928.66;1671137;86;20453;-71
2022/09/02 01:44:48;;;;;;;;;;;;;;;20.98;53.99;152927.38;1677607;84;20188;-70
2022/09/02 01:47:18;;;;;;;;;;;;;;;21.00;53.67;152932.59;1670946;84;40166;-66
2022/09/02 01:49:45;;;;;;;;;;;;;;;21.09;53.43;152954.81;1677764;84;20179;-70
2022/09/02 01:52:12;;;;;;;;;;;;;;;21.12;52.57;152963.98;1671037;86;20201;-70
2022/09/02 01:54:39;;;;;;;;;;;;;;;21.16;53.01;152974.42;1677633;85;20188;-69
2022/09/02 01:57:06;;;;;;;;;;;;;;;21.22;54.31;152987.48;1670738;86;20486;-69
2022/09/02 01:59:33;;;;;;;;;;;;;;;21.28;53.20;153003.16;1677468;85;21195;-70
2022/09/02 02:02:00;;;;;;;;;;;;;;;21.33;53.47;153016.22;1678064;85;20149;-70
2022/09/02 02:04:27;;;;;;;;;;;;;;;21.35;53.23;153020.16;1677892;85;20184;-66
2022/09/02 02:06:55;;;;;;;;;;;;;;;21.39;52.06;153030.61;1708922;83;20170;-66
2022/09/02 02:09:22;;;;;;;;;;;;;;;21.37;51.62;153025.38;1712641;83;20474;-66
2022/09/02 02:11:51;;;;;;;;;;;;;;;21.32;51.92;153013.61;1712451;82;21288;-70
2022/09/02 02:14:18;;;;;;;;;;;;;;;21.31;51.74;153012.33;1706648;83;20210;-70
2022/09/02 02:16:46;;;;;;;;;;;;;;;21.31;51.18;153011.00;1706287;84;20469;-70
2022/09/02 02:19:13;;;;;;;;;;;;;;;21.29;51.36;153005.78;1706478;84;20718;-69
2022/09/02 02:21:40;;;;;;;;;;;;;;;21.24;52.12;152992.72;1706315;84;20613;-70
2022/09/02 02:24:07;;;;;;;;;;;;;;;21.27;53.65;153000.55;1706199;84;21267;-70
2022/09/02 02:26:34;;;;;;;;;;;;;;;21.33;51.90;153016.22;1706122;84;20194;-66
2022/09/02 02:29:01;;;;;;;;;;;;;;;21.34;51.39;153018.88;1706850;84;20202;-70
2022/09/02 02:31:28;;;;;;;;;;;;;;;21.32;53.10;153014.94;1706369;84;20190;-70
2022/09/02 02:33:55;;;;;;;;;;;;;;;21.29;52.52;153005.78;1706469;84;20478;-71
2022/09/02 02:36:22;;;;;;;;;;;;;;;21.21;52.44;152986.16;1706923;84;21892;-71
2022/09/02 02:38:49;;;;;;;;;;;;;;;21.17;53.83;152977.05;1706380;84;20602;-72
2022/09/02 02:41:16;;;;;;;;;;;;;;;21.24;53.41;152992.72;1706354;84;20396;-71
2022/09/02 02:43:44;;;;;;;;;;;;;;;21.22;51.52;152987.48;1706228;84;20229;-71
2022/09/02 02:46:11;;;;;;;;;;;;;;;21.13;50.38;152966.59;1706289;84;20210;-70
2022/09/02 02:48:38;;;;;;;;;;;;;;;21.08;50.86;152952.20;1706171;84;21216;-67
2022/09/02 02:51:05;;;;;;;;;;;;;;;21.10;51.09;152957.44;1706366;84;20205;-66
2022/09/02 02:53:35;;;;;;;;;;;;;;;21.11;51.65;152961.38;1706157;84;20205;-66
2022/09/02 02:56:02;;;;;;;;;;;;;;;21.10;51.74;152958.70;1706423;84;20178;-66
2022/09/02 02:58:29;;;;;;;;;;;;;;;21.08;51.69;152953.48;1706428;84;20248;-71
2022/09/02 03:00:56;;;;;;;;;;;;;;;21.08;51.64;152952.20;1706253;84;21157;-70
2022/09/02 03:03:23;;;;;;;;;;;;;;;21.06;52.18;152946.98;1706649;84;20213;-71
2022/09/02 03:05:52;;;;;;;;;;;;;;;21.00;53.11;152932.59;1711497;82;20197;-70
2022/09/02 03:08:19;;;;;;;;;;;;;;;20.98;51.94;152927.38;1695534;83;20151;-65
2022/09/02 03:10:48;;;;;;;;;;;;;;;20.95;52.22;152920.81;1695314;84;20179;-65
2022/09/02 03:13:15;;;;;;;;;;;;;;;20.99;54.33;152929.98;1691202;84;21897;-70
2022/09/02 03:15:44;;;;;;;;;;;;;;;21.00;54.17;152932.59;1686538;85;20463;-70
2022/09/02 03:18:11;;;;;;;;;;;;;;;21.01;53.40;152935.20;1686694;85;20350;-70
2022/09/02 03:20:39;;;;;;;;;;;;;;;20.97;53.68;152924.75;1686564;85;20190;-70
2022/09/02 03:23:06;;;;;;;;;;;;;;;20.97;54.15;152924.75;1687122;85;20210;-70
2022/09/02 03:25:34;;;;;;;;;;;;;;;20.98;54.69;152928.66;1686318;85;21249;-70
2022/09/02 03:28:03;;;;;;;;;;;;;;;20.98;54.75;152928.66;1686612;84;20500;-66
2022/09/02 03:30:30;;;;;;;;;;;;;;;20.98;54.04;152927.38;1686535;84;20192;-65
2022/09/02 03:32:58;;;;;;;;;;;;;;;20.97;53.62;152924.75;1686706;84;20128;-70
2022/09/02 03:35:25;;;;;;;;;;;;;;;20.93;53.59;152915.59;1686588;84;20218;-65
2022/09/02 03:37:52;;;;;;;;;;;;;;;20.87;53.50;152901.22;1686807;85;21111;-66
2022/09/02 03:40:22;;;;;;;;;;;;;;;20.87;54.09;152901.22;1686828;85;20188;-66
2022/09/02 03:42:51;;;;;;;;;;;;;;;20.96;54.89;152922.16;1686480;85;20186;-70
2022/09/02 03:45:18;;;;;;;;;;;;;;;21.09;54.92;152956.09;1686681;85;20207;-66
2022/09/02 03:47:50;;;;;;;;;;;;;;;21.15;54.75;152970.48;1686593;85;20453;-66
2022/09/02 03:50:13;;;;;;;;;;;;;;;21.17;53.56;152977.05;1686091;85;21283;-71
2022/09/02 03:52:41;;;;;;;;;;;;;;;21.18;54.54;152978.33;1686350;85;20216;-71
2022/09/02 03:55:08;;;;;;;;;;;;;;;21.18;54.57;152979.66;1687032;84;20218;-70
2022/09/02 03:57:35;;;;;;;;;;;;;;;21.23;54.95;152990.09;1686549;84;20845;-71
2022/09/02 04:00:04;;;;;;;;;;;;;;;21.27;55.29;153000.55;1692936;84;20175;-70
2022/09/02 04:02:33;;;;;;;;;;;;;;;21.26;54.77;152999.27;1700509;84;21965;-66
2022/09/02 04:05:00;;;;;;;;;;;;;;;21.28;54.43;153003.16;1702211;84;20413;-66
2022/09/02 04:07:27;;;;;;;;;;;;;;;21.30;52.60;153009.72;1704810;84;20672;-71
2022/09/02 04:09:55;;;;;;;;;;;;;;;21.38;51.32;153029.33;1701835;84;20710;-71
2022/09/02 04:12:22;;;;;;;;;;;;;;;21.52;50.35;153063.28;1702142;84;20596;-70
2022/09/02 04:14:50;;;;;;;;;;;;;;;21.53;49.83;153067.22;1701684;84;21244;-70
2022/09/02 04:17:17;;;;;;;;;;;;;;;21.60;49.04;153085.52;1701651;84;20523;-71
2022/09/02 04:19:45;;;;;;;;;;;;;;;21.73;48.91;153118.25;1701693;84;20221;-66
2022/09/02 04:22:11;;;;;;;;;;;;;;;21.85;47.95;153148.31;1701593;84;20179;-66
2022/09/02 04:24:38;;;;;;;;;;;;;;;21.83;47.66;153143.09;1701768;84;20169;-67
2022/09/02 04:27:05;;;;;;;;;;;;;;;21.76;47.91;153124.80;1702155;84;21907;-66
2022/09/02 04:29:34;;;;;;;;;;;;;;;21.84;48.90;153144.42;1702064;84;20205;-67
2022/09/02 04:32:01;;;;;;;;;;;;;;;21.90;47.79;153160.09;1702227;84;20123;-67
2022/09/02 04:34:27;;;;;;;;;;;;;;;21.91;48.61;153162.72;1701818;84;20214;-66
2022/09/02 04:36:55;;;;;;;;;;;;;;;22.01;50.03;153188.89;1675661;84;20202;-67
2022/09/02 04:39:22;;;;;;;;;;;;;;;22.13;50.38;153217.63;1701944;84;22786;-67
2022/09/02 04:41:49;;;;;;;;;;;;;;;22.26;50.45;153250.33;1701817;84;20201;-66
2022/09/02 04:44:16;;;;;;;;;;;;;;;22.41;49.98;153288.25;1701844;84;20130;-67
2022/09/02 04:46:45;;;;;;;;;;;;;;;22.52;49.03;153317.09;1701813;84;20210;-66
2022/09/02 04:49:13;;;;;;;;;;;;;;;22.59;47.68;153334.11;1702090;84;20161;-66
2022/09/02 04:51:41;;;;;;;;;;;;;;;22.63;47.17;153343.23;1702055;84;21215;-66
2022/09/02 04:54:08;;;;;;;;;;;;;;;22.73;47.41;153369.42;1702253;84;20454;-67
2022/09/02 04:56:37;;;;;;;;;;;;;;;22.87;47.14;153406.02;1701812;84;20166;-67
2022/09/02 04:59:04;;;;;;;;;;;;;;;23.01;47.88;153441.39;1702325;84;20167;-65
2022/09/02 05:01:33;;;;;;;;;;;;;;;23.07;47.92;153455.75;1694856;83;20130;-67
2022/09/02 05:04:04;;;;;;;;;;;;;;;23.10;46.81;153462.31;1693824;84;21240;-68
2022/09/02 05:06:32;;;;;;;;;;;;;;;23.26;46.48;153502.91;1697230;84;20123;-71
2022/09/02 05:09:02;;;;;;;;;;;;;;;23.48;44.99;153557.88;1699243;83;20392;-70
2022/09/02 05:11:31;;;;;;;;;;;;;;;23.56;44.30;153580.14;1699234;84;20447;-71
2022/09/02 05:14:00;;;;;;;;;;;;;;;23.66;44.72;153605.02;1671152;84;20154;-71
2022/09/02 05:16:35;;;;;;;;;;;;;;;23.76;45.22;153629.87;1665550;86;21101;-70
2022/09/02 05:19:02;;;;;;;;;;;;;;;23.91;43.35;153667.84;1665606;85;20444;-70
2022/09/02 05:21:31;;;;;;;;;;;;;;;24.10;43.63;153715.03;1665103;86;20218;-71
2022/09/02 05:23:59;;;;;;;;;;;;;;;24.25;44.16;153754.33;1665308;85;20966;-70
2022/09/02 05:26:26;;;;;;;;;;;;;;;24.21;44.29;153743.86;1665224;86;20181;-71
2022/09/02 05:28:53;;;;;;;;;;;;;;;24.16;44.40;153730.72;1665287;85;21241;-70
2022/09/02 05:31:20;;;;;;;;;;;;;;;24.02;45.11;153695.38;1665433;85;20216;-71
2022/09/02 05:33:47;;;;;;;;;;;;;;;24.07;45.43;153708.47;1665523;85;20223;-71
2022/09/02 05:36:20;;;;;;;;;;;;;;;24.19;44.52;153738.58;1665332;86;20232;-71
2022/09/02 05:38:46;;;;;;;;;;;;;;;24.11;44.47;153717.64;1665637;85;20185;-71
2022/09/02 05:41:17;;;;;;;;;;;;;;;23.96;44.74;153679.64;1640626;86;21129;-71
2022/09/02 05:43:44;;;;;;;;;;;;;;;23.99;44.57;153687.48;1665560;85;20197;-70
2022/09/02 05:46:13;;;;;;;;;;;;;;;24.06;43.66;153704.56;1665631;85;20160;-71
2022/09/02 05:51:27;;;;;;;;;;;;;;;24.21;44.44;153743.86;1665419;85;20481;-69
2022/09/02 05:53:54;;;;;;;;;;;;;;;24.12;45.33;153721.59;1694903;84;21245;-71
2022/09/02 05:56:21;;;;;;;;;;;;;;;24.10;44.71;153715.03;1693425;83;20916;-71
2022/09/02 05:58:48;;;;;;;;;;;;;;;24.05;44.00;153701.95;1693567;84;20203;-71
2022/09/02 06:01:16;;;;;;;;;;;;;;;23.94;43.78;153675.69;1698273;83;20429;-71
2022/09/02 06:03:43;;;;;;;;;;;;;;;23.95;44.83;153678.31;1704973;83;20481;-71
2022/09/02 06:06:10;;;;;;;;;;;;;;;24.20;44.11;153741.19;1707315;83;21212;-70
2022/09/02 06:08:37;;;;;;;;;;;;;;;24.53;42.16;153825.03;1705599;83;20193;-71
2022/09/02 06:11:07;;;;;;;;;;;;;;;24.77;41.21;153885.31;1696613;83;20152;-71
2022/09/02 06:13:36;;;;;;;;;;;;;;;24.79;41.42;153890.56;1706425;83;20294;-71
2022/09/02 06:16:04;;;;;;;;;;;;;;;24.76;42.17;153882.70;1698544;83;20994;-71
2022/09/02 06:18:31;;;;;;;;;;;;;;;24.60;41.22;153842.06;1703115;83;21199;-72
2022/09/02 06:20:58;;;;;;;;;;;;;;;24.35;41.34;153777.88;1696542;83;20178;-71
2022/09/02 06:23:27;;;;;;;;;;;;;;;24.28;42.46;153762.17;1701102;83;20484;-72
2022/09/02 06:25:53;;;;;;;;;;;;;;;24.24;41.85;153750.38;1703434;83;20455;-71
2022/09/02 06:28:20;;;;;;;;;;;;;;;24.14;41.90;153726.83;1698422;83;20475;-71
2022/09/02 06:30:47;;;;;;;;;;;;;;;24.23;42.06;153747.75;1700403;83;22000;-67
2022/09/02 06:33:16;;;;;;;;;;;;;;;24.22;43.05;153746.47;1707682;83;20218;-67
2022/09/02 06:35:44;;;;;;;;;;;;;;;24.07;43.98;153707.19;1704235;83;20727;-67
2022/09/02 06:38:12;;;;;;;;;;;;;;;24.01;43.48;153694.09;1703422;83;20230;-66
2022/09/02 06:40:48;;;;;;;;;;;;;;;23.92;43.43;153670.45;1709369;83;20487;-71
2022/09/02 06:43:16;;;;;;;;;;;;;;;23.74;42.68;153625.94;1709102;83;21287;-66
2022/09/02 06:46:03;;;;;;;;;;;;;;;23.56;42.61;153578.86;1705947;83;20174;-66
2022/09/02 06:48:32;;;;;;;;;;;;;;;23.52;43.55;153568.34;1702940;83;20201;-66
2022/09/02 06:51:01;;;;;;;;;;;;;;;23.60;44.22;153589.31;1695359;83;20481;-66
2022/09/02 06:53:28;;;;;;;;;;;;;;;23.56;41.75;153578.86;1697071;83;20185;-66
2022/09/02 06:55:55;;;;;;;;;;;;;;;23.41;43.97;153542.19;1690614;83;21090;-66
2022/09/02 06:58:22;;;;;;;;;;;;;;;23.34;43.39;153523.88;1699521;83;20194;-66
2022/09/02 07:00:49;;;;;;;;;;;;;;;23.29;44.94;153510.77;1696978;82;20222;-66
2022/09/02 07:06:10;;;;;;;;;;;;;;;23.19;44.86;153485.84;1692928;84;20262;-66
2022/09/02 07:08:41;;;;;;;;;;;;;;;23.20;44.67;153487.17;1695738;83;22363;-72
2022/09/02 07:11:14;;;;;;;;;;;;;;;23.12;43.36;153468.88;1687529;84;20443;-70
2022/09/02 07:13:41;;;;;;;;;;;;;;;23.12;43.53;153468.88;1688967;83;20227;-70
2022/09/02 07:16:09;;;;;;;;;;;;;;;23.18;44.25;153483.22;1695099;83;20459;-70
2022/09/02 07:18:38;;;;;;;;;;;;;;;23.28;43.26;153508.14;1713853;81;20229;-70
2022/09/02 07:21:10;;;;;;;;;;;;;;;23.28;42.89;153509.48;1694217;83;21088;-70
2022/09/02 07:23:37;;;;;;;;;;;;;;;23.36;43.74;153529.11;1691161;82;20178;-70
2022/09/02 07:26:06;;;;;;;;;;;;;;;23.34;43.17;153523.88;1695655;83;20451;-70
2022/09/02 07:28:33;;;;;;;;;;;;;;;23.27;43.05;153506.86;1624143;87;21056;-69
2022/09/02 07:31:00;;;;;;;;;;;;;;;23.27;41.15;153506.86;1659622;84;20215;-70
2022/09/02 07:33:27;;;;;;;;;;;;;;;23.32;41.76;153518.61;1630673;85;21283;-70
2022/09/02 07:35:55;;;;;;;;;;;;;;;23.38;42.87;153534.34;1691658;84;20490;-70
2022/09/02 07:38:22;;;;;;;;;;;;;;;23.31;42.37;153517.31;1692524;83;20210;-71
2022/09/02 07:40:50;;;;;;;;;;;;;;;23.22;42.36;153492.41;1692338;83;20250;-71
2022/09/02 07:43:17;;;;;;;;;;;;;;;23.28;41.98;153508.14;1663502;84;20205;-71
2022/09/02 07:45:44;;;;;;;;;;;;;;;23.34;42.34;153523.88;1633826;86;21231;-70
2022/09/02 07:48:13;;;;;;;;;;;;;;;23.48;41.91;153559.22;1634657;86;20215;-66
2022/09/02 07:50:40;;;;;;;;;;;;;;;23.61;40.31;153593.22;1688707;84;20170;-70
2022/09/02 07:53:12;;;;;;;;;;;;;;;23.61;40.21;153591.94;1693541;84;20184;-70
2022/09/02 07:55:40;;;;;;;;;;;;;;;23.64;40.33;153598.44;1696953;83;20358;-70
2022/09/02 07:58:07;;;;;;;;;;;;;;;23.83;39.80;153646.91;1686160;84;21245;-70
2022/09/02 08:00:34;;;;;;;;;;;;;;;23.85;39.64;153652.14;1696087;84;20611;-71
2022/09/02 08:03:02;;;;;;;;;;;;;;;23.85;38.73;153652.14;1706282;82;20208;-71
2022/09/02 08:05:31;;;;;;;;;;;;;;;23.80;38.30;153639.06;1698115;82;21051;-71
2022/09/02 08:07:59;;;;;;;;;;;;;;;23.89;38.78;153663.94;1670206;84;20457;-71
2022/09/02 08:10:28;;;;;;;;;;;;;;;23.99;38.30;153688.81;1659070;84;21232;-71
2022/09/02 08:12:56;;;;;;;;;;;;;;;24.09;38.71;153712.41;1704192;83;21498;-67
2022/09/02 08:15:27;;;;;;;;;;;;;;;24.12;39.20;153721.59;1708508;83;20540;-70
2022/09/02 08:17:54;;;;;;;;;;;;;;;24.16;39.05;153730.72;1704764;83;20203;-71
2022/09/02 08:20:21;;;;;;;;;;;;;;;24.17;38.02;153734.67;1710532;82;20612;-70
2022/09/02 08:22:48;;;;;;;;;;;;;;;24.11;38.11;153718.97;1700439;84;21250;-70
2022/09/02 08:25:17;;;;;;;;;;;;;;;24.07;37.25;153708.47;1697840;82;20530;-65
2022/09/02 08:27:44;;;;;;;;;;;;;;;24.01;37.30;153694.09;1694915;82;20242;-70
2022/09/02 08:30:11;;;;;;;;;;;;;;;23.90;38.51;153665.22;1699733;82;20143;-71
2022/09/02 08:32:40;;;;;;;;;;;;;;;23.83;39.02;153648.19;1688669;82;20206;-71
2022/09/02 08:35:08;;;;;;;;;;;;;;;23.93;38.76;153671.78;1720004;81;21245;-71
2022/09/02 08:37:35;;;;;;;;;;;;;;;24.08;38.10;153709.80;1661868;84;20417;-71
2022/09/02 08:40:05;;;;;;;;;;;;;;;24.06;37.19;153705.84;1630357;87;20187;-72
2022/09/02 08:42:39;;;;;;;;;;;;;;;23.93;38.38;153673.08;1643949;85;20400;-71
2022/09/02 08:45:22;;;;;;;;;;;;;;;23.96;38.37;153680.92;1700200;82;20206;-68
2022/09/02 08:47:52;;;;;;;;;;;;;;;24.02;38.51;153696.72;1671764;84;21106;-66
2022/09/02 08:50:19;;;;;;;;;;;;;;;24.21;39.24;153742.53;1696712;82;20660;-67
2022/09/02 08:52:55;;;;;;;;;;;;;;;24.28;38.04;153760.84;1697751;82;20474;-71
2022/09/02 08:55:24;;;;;;;;;;;;;;;24.32;38.27;153771.36;1701423;82;20174;-70
2022/09/02 08:57:55;;;;;;;;;;;;;;;24.44;38.63;153801.47;1702414;82;20202;-70
2022/09/02 09:00:20;;;;;;;;;;;;;;;24.49;37.07;153814.56;1687055;84;21050;-69
2022/09/02 09:03:03;;;;;;;;;;;;;;;24.45;36.72;153804.09;1685865;83;20623;-70
2022/09/02 09:05:39;;;;;;;;;;;;;;;24.44;36.91;153801.47;1698013;82;20229;-70
2022/09/02 09:08:28;;;;;;;;;;;;;;;24.44;37.06;153801.47;1695054;82;20657;-70
2022/09/02 09:11:21;;;;;;;;;;;;;;;24.38;36.44;153785.72;1696884;84;20224;-70
2022/09/02 09:13:55;;;;;;;;;;;;;;;24.36;36.17;153780.50;1697835;84;21251;-70
2022/09/02 09:16:42;;;;;;;;;;;;;;;24.27;36.20;153759.56;1696576;82;20205;-70
2022/09/02 09:19:16;;;;;;;;;;;;;;;24.34;35.55;153775.25;1702482;82;20216;-71
2022/09/02 09:21:43;;;;;;;;;;;;;;;24.30;36.64;153766.08;1692062;82;20210;-71
2022/09/02 09:24:23;;;;;;;;;;;;;;;24.29;36.02;153764.78;1670662;84;20206;-67
2022/09/02 09:26:50;;;;;;;;;;;;;;;24.38;35.93;153787.06;1641060;86;21248;-71
2022/09/02 09:29:17;;;;;;;;;;;;;;;24.46;35.68;153807.98;1641451;85;20483;-67
2022/09/02 09:31:44;;;;;;;;;;;;;;;24.45;36.44;153804.09;1681277;85;20188;-67
2022/09/02 09:34:11;;;;;;;;;;;;;;;24.53;35.65;153825.03;1701945;83;20182;-67
2022/09/02 09:36:42;;;;;;;;;;;;;;;24.53;35.39;153825.03;1710040;82;20173;-66
2022/09/02 09:39:30;;;;;;;;;;;;;;;24.58;35.72;153836.83;1702214;82;21242;-70
2022/09/02 09:42:01;;;;;;;;;;;;;;;24.76;36.03;153882.70;1670950;83;20353;-66
2022/09/02 09:44:40;;;;;;;;;;;;;;;24.87;35.12;153911.53;1644224;85;20162;-66
2022/09/02 09:47:09;;;;;;;;;;;;;;;24.89;35.53;153916.78;1635932;85;20718;-66
2022/09/02 09:49:36;;;;;;;;;;;;;;;24.94;35.19;153927.25;1642078;85;20610;-66
2022/09/02 09:52:03;;;;;;;;;;;;;;;25.00;34.14;153942.95;1684599;84;21276;-67
2022/09/02 09:54:30;;;;;;;;;;;;;;;24.75;34.54;153880.09;1663087;84;20196;-66
2022/09/02 09:57:17;;;;;;;;;;;;;;;24.46;35.37;153806.70;1672258;84;20252;-67
2022/09/02 09:59:46;;;;;;;;;;;;;;;24.26;36.07;153756.94;1666064;84;21620;-65
2022/09/02 10:02:24;;;;;;;;;;;;;;;24.25;35.88;153752.98;1675329;85;20450;-66
2022/09/02 10:04:57;;;;;;;;;;;;;;;24.32;35.74;153771.36;1666876;84;21281;-66
2022/09/02 10:07:37;;;;;;;;;;;;;;;24.29;36.34;153764.78;1657266;84;20769;-66
2022/09/02 10:10:21;;;;;;;;;;;;;;;24.36;35.93;153780.50;1659069;84;20186;-66
2022/09/02 10:12:49;;;;;;;;;;;;;;;24.41;34.99;153793.56;1666945;84;20580;-66
2022/09/02 10:15:32;;;;;;;;;;;;;;;24.43;34.87;153800.14;1667477;84;20189;-67
2022/09/02 10:18:13;;;;;;;;;;;;;;;24.60;35.98;153843.34;1614077;86;20228;-66
2022/09/02 10:20:51;;;;;;;;;;;;;;;24.82;35.89;153898.41;1674309;84;20179;-67
2022/09/02 10:23:27;;;;;;;;;;;;;;;24.93;35.85;153924.63;1661956;84;20178;-71
2022/09/02 10:26:04;;;;;;;;;;;;;;;24.96;35.91;153933.77;1643130;86;20175;-72
2022/09/02 10:28:34;;;;;;;;;;;;;;;24.96;35.84;153932.48;1668737;84;20350;-72
2022/09/02 10:31:10;;;;;;;;;;;;;;;24.85;35.05;153906.25;1662791;84;21146;-73
2022/09/02 10:33:44;;;;;;;;;;;;;;;24.54;35.42;153827.64;1661506;84;20188;-66
2022/09/02 10:36:17;;;;;;;;;;;;;;;24.36;36.33;153781.81;1629568;86;20183;-66
2022/09/02 10:38:46;;;;;;;;;;;;;;;24.35;35.69;153779.20;1642305;86;20193;-66
2022/09/02 10:41:36;;;;;;;;;;;;;;;24.34;36.34;153775.25;1650039;85;20213;-67
2022/09/02 10:44:30;;;;;;;;;;;;;;;24.44;36.60;153801.47;1651098;85;21195;-66
2022/09/02 10:47:03;;;;;;;;;;;;;;;24.46;36.32;153806.70;1654146;85;20212;-66
2022/09/02 10:49:39;;;;;;;;;;;;;;;24.63;36.58;153848.58;1664952;84;20176;-67
2022/09/02 10:52:15;;;;;;;;;;;;;;;24.80;36.38;153893.17;1663257;84;20214;-66
2022/09/02 10:55:00;;;;;;;;;;;;;;;25.02;35.25;153948.19;1663883;84;20235;-72
2022/09/02 10:57:30;;;;;;;;;;;;;;;25.03;34.92;153950.80;1610687;85;21331;-72
2022/09/02 11:00:10;;;;;;;;;;;;;;;24.83;35.16;153899.73;1641332;84;20127;-72
2022/09/02 11:02:56;;;;;;;;;;;;;;;24.63;37.17;153848.58;1663962;83;20212;-72
2022/09/02 11:05:35;;;;;;;;;;;;;;;24.64;36.84;153851.19;1693716;84;20210;-72
2022/09/02 11:08:16;;;;;;;;;;;;;;;24.66;36.57;153856.48;1675407;84;20322;-67
2022/09/02 11:10:56;;;;;;;;;;;;;;;24.63;36.69;153848.58;1683251;84;21260;-66
2022/09/02 11:13:31;;;;;;;;;;;;;;;24.77;36.39;153885.31;1677153;84;20409;-71
2022/09/02 11:16:14;;;;;;;;;;;;;;;24.92;36.34;153922.02;1676450;84;20205;-67
2022/09/02 11:18:57;;;;;;;;;;;;;;;24.95;35.18;153929.86;1679440;84;20282;-66
2022/09/02 11:21:44;;;;;;;;;;;;;;;25.03;35.51;153952.14;1683878;84;20163;-67
2022/09/02 11:24:27;;;;;;;;;;;;;;;25.20;35.44;153994.06;1687407;84;21244;-67
2022/09/02 11:27:19;;;;;;;;;;;;;;;25.20;34.47;153994.06;1626010;84;20245;-72
2022/09/02 11:30:01;;;;;;;;;;;;;;;24.94;35.38;153927.25;1657405;85;20193;-72
2022/09/02 11:32:52;;;;;;;;;;;;;;;24.79;34.99;153890.56;1622534;87;20198;-72
2022/09/02 11:35:27;;;;;;;;;;;;;;;24.69;36.12;153864.33;1621690;87;20199;-72
2022/09/02 11:38:00;;;;;;;;;;;;;;;24.72;36.69;153873.47;1677643;84;21148;-72
2022/09/02 11:40:33;;;;;;;;;;;;;;;24.69;35.95;153864.33;1679557;83;20216;-72
2022/09/02 11:43:23;;;;;;;;;;;;;;;24.68;36.14;153861.72;1678061;84;20227;-72
2022/09/02 11:46:03;;;;;;;;;;;;;;;24.69;36.03;153864.33;1680765;84;20666;-72
2022/09/02 11:48:50;;;;;;;;;;;;;;;24.68;35.82;153861.72;1660411;86;20252;-71
2022/09/02 11:51:23;;;;;;;;;;;;;;;24.78;35.41;153887.94;1679120;84;21250;-69
2022/09/02 11:53:50;;;;;;;;;;;;;;;24.91;34.82;153919.39;1674540;84;20209;-71
2022/09/02 11:56:23;;;;;;;;;;;;;;;25.00;34.71;153942.95;1677456;84;20232;-71
2022/09/02 11:58:55;;;;;;;;;;;;;;;25.12;34.89;153974.41;1673891;84;20485;-72
2022/09/02 12:01:26;;;;;;;;;;;;;;;25.13;34.67;153977.03;1676426;84;20483;-72
2022/09/02 12:04:11;;;;;;;;;;;;;;;24.96;34.98;153932.48;1713678;82;21234;-66
2022/09/02 12:07:07;;;;;;;;;;;;;;;24.81;35.40;153895.78;1707221;82;21193;-67
2022/09/02 12:09:42;;;;;;;;;;;;;;;24.75;35.74;153881.37;1713013;82;20170;-66
2022/09/02 12:12:10;;;;;;;;;;;;;;;24.82;35.21;153897.13;1704793;82;20491;-66
2022/09/02 12:14:47;;;;;;;;;;;;;;;24.80;35.79;153891.89;1685626;82;20150;-66
2022/09/02 12:17:23;;;;;;;;;;;;;;;24.82;35.84;153898.41;1663180;84;21771;-66
2022/09/02 12:23:52;;;;;;;;;;;;;;;24.98;34.98;153937.72;1645567;85;20465;-65
2022/09/02 12:26:29;;;;;;;;;;;;;;;25.06;36.34;153958.66;1650112;85;20203;-67
2022/09/02 12:29:23;;;;;;;;;;;;;;;25.14;35.19;153979.66;1642333;85;20193;-66
2022/09/02 12:31:50;;;;;;;;;;;;;;;25.24;34.80;154003.22;1682355;84;21053;-66
2022/09/02 12:34:21;;;;;;;;;;;;;;;25.20;34.68;153992.75;1643250;86;20208;-65
2022/09/02 12:36:54;;;;;;;;;;;;;;;25.26;33.74;154008.45;1661106;84;20498;-65
2022/09/02 12:39:27;;;;;;;;;;;;;;;25.33;33.18;154026.83;1668730;84;20198;-66
2022/09/02 12:42:11;;;;;;;;;;;;;;;25.24;34.06;154004.55;1670045;84;20232;-66
2022/09/02 12:44:47;;;;;;;;;;;;;;;25.14;34.65;153979.66;1689037;83;21326;-66
2022/09/02 12:47:28;;;;;;;;;;;;;;;25.13;35.03;153977.03;1699952;83;20149;-67
2022/09/02 12:49:58;;;;;;;;;;;;;;;25.23;34.56;154000.59;1705493;82;20149;-66
2022/09/02 12:52:41;;;;;;;;;;;;;;;25.43;33.91;154053.00;1706609;82;20174;-66
2022/09/02 12:55:22;;;;;;;;;;;;;;;25.64;33.43;154104.14;1705773;82;20194;-66
2022/09/02 12:57:52;;;;;;;;;;;;;;;25.77;32.88;154136.95;1707081;82;21139;-67
2022/09/02 13:00:48;;;;;;;;;;;;;;;25.93;32.57;154177.56;1680286;83;20260;-66
2022/09/02 13:03:38;;;;;;;;;;;;;;;26.23;32.96;154254.95;1643116;85;20272;-66